sensor_id;sensor_type;location;lat;lon;timestamp;P1;durP1;ratioP1;P2;durP2;ratioP2
22219;SDS011;11279;48.364;10.904;2023-11-18T00:00:03;6.63;;;4.17;;
22219;SDS011;11279;48.364;10.904;2023-11-18T00:01:11;8.60;;;4.28;;
22219;SDS011;11279;48.364;10.904;2023-11-18T00:02:11;8.70;;;4.47;;
22219;SDS011;11279;48.364;10.904;2023-11-18T00:03:12;7.83;;;3.97;;
22219;SDS011;11279;48.364;10.904;2023-11-18T00:04:12;8.33;;;4.30;;
22219;SDS011;11279;48.364;10.904;2023-11-18T00:05:16;6.65;;;3.83;;
22219;SDS011;11279;48.364;10.904;2023-11-18T00:06:16;6.73;;;4.03;;
22219;SDS011;11279;48.364;10.904;2023-11-18T00:07:17;6.73;;;3.73;;
22219;SDS011;11279;48.364;10.904;2023-11-18T00:08:17;6.23;;;3.70;;
22219;SDS011;11279;48.364;10.904;2023-11-18T00:09:18;6.50;;;3.80;;
22219;SDS011;11279;48.364;10.904;2023-11-18T00:10:18;6.43;;;4.03;;
22219;SDS011;11279;48.364;10.904;2023-11-18T00:11:18;6.57;;;3.80;;
22219;SDS011;11279;48.364;10.904;2023-11-18T00:12:19;5.87;;;4.10;;
22219;SDS011;11279;48.364;10.904;2023-11-18T00:13:19;7.00;;;4.03;;
22219;SDS011;11279;48.364;10.904;2023-11-18T00:14:20;6.47;;;4.13;;
22219;SDS011;11279;48.364;10.904;2023-11-18T00:15:21;9.98;;;4.55;;
22219;SDS011;11279;48.364;10.904;2023-11-18T00:16:21;5.90;;;3.57;;
22219;SDS011;11279;48.364;10.904;2023-11-18T00:17:22;10.57;;;3.93;;
22219;SDS011;11279;48.364;10.904;2023-11-18T00:18:22;8.00;;;4.07;;
22219;SDS011;11279;48.364;10.904;2023-11-18T00:19:23;6.93;;;4.10;;
22219;SDS011;11279;48.364;10.904;2023-11-18T00:20:23;6.80;;;4.20;;
22219;SDS011;11279;48.364;10.904;2023-11-18T00:21:24;5.70;;;3.87;;
22219;SDS011;11279;48.364;10.904;2023-11-18T00:22:25;7.47;;;4.53;;
22219;SDS011;11279;48.364;10.904;2023-11-18T00:23:25;6.50;;;4.13;;
22219;SDS011;11279;48.364;10.904;2023-11-18T00:24:26;8.88;;;4.30;;
22219;SDS011;11279;48.364;10.904;2023-11-18T00:25:27;6.03;;;4.10;;
22219;SDS011;11279;48.364;10.904;2023-11-18T00:26:27;10.23;;;5.10;;
22219;SDS011;11279;48.364;10.904;2023-11-18T00:27:29;7.60;;;4.10;;
22219;SDS011;11279;48.364;10.904;2023-11-18T00:28:29;9.90;;;4.33;;
22219;SDS011;11279;48.364;10.904;2023-11-18T00:29:30;9.17;;;5.33;;
22219;SDS011;11279;48.364;10.904;2023-11-18T00:30:30;9.70;;;4.93;;
22219;SDS011;11279;48.364;10.904;2023-11-18T00:31:31;8.13;;;4.70;;
22219;SDS011;11279;48.364;10.904;2023-11-18T00:32:31;7.63;;;4.23;;
22219;SDS011;11279;48.364;10.904;2023-11-18T00:33:32;7.00;;;4.20;;
22219;SDS011;11279;48.364;10.904;2023-11-18T00:34:35;6.90;;;4.27;;
22219;SDS011;11279;48.364;10.904;2023-11-18T00:35:35;6.75;;;4.10;;
22219;SDS011;11279;48.364;10.904;2023-11-18T00:36:36;10.47;;;4.50;;
22219;SDS011;11279;48.364;10.904;2023-11-18T00:37:36;11.60;;;4.87;;
22219;SDS011;11279;48.364;10.904;2023-11-18T00:38:37;7.93;;;4.43;;
22219;SDS011;11279;48.364;10.904;2023-11-18T00:39:37;7.20;;;4.40;;
22219;SDS011;11279;48.364;10.904;2023-11-18T00:40:38;6.70;;;4.10;;
22219;SDS011;11279;48.364;10.904;2023-11-18T00:41:38;8.47;;;4.27;;
22219;SDS011;11279;48.364;10.904;2023-11-18T00:42:39;6.97;;;4.03;;
22219;SDS011;11279;48.364;10.904;2023-11-18T00:43:39;10.13;;;5.47;;
22219;SDS011;11279;48.364;10.904;2023-11-18T00:44:40;6.17;;;3.73;;
22219;SDS011;11279;48.364;10.904;2023-11-18T00:45:41;8.32;;;4.85;;
22219;SDS011;11279;48.364;10.904;2023-11-18T00:46:43;7.07;;;4.50;;
22219;SDS011;11279;48.364;10.904;2023-11-18T00:47:44;7.73;;;4.30;;
22219;SDS011;11279;48.364;10.904;2023-11-18T00:48:44;8.37;;;4.40;;
22219;SDS011;11279;48.364;10.904;2023-11-18T00:49:44;9.47;;;4.80;;
22219;SDS011;11279;48.364;10.904;2023-11-18T00:50:45;8.80;;;4.43;;
22219;SDS011;11279;48.364;10.904;2023-11-18T00:51:45;12.03;;;5.63;;
22219;SDS011;11279;48.364;10.904;2023-11-18T00:52:46;8.23;;;4.93;;
22219;SDS011;11279;48.364;10.904;2023-11-18T00:53:49;9.95;;;4.60;;
22219;SDS011;11279;48.364;10.904;2023-11-18T00:54:50;6.97;;;4.67;;
22219;SDS011;11279;48.364;10.904;2023-11-18T00:55:50;7.67;;;4.57;;
22219;SDS011;11279;48.364;10.904;2023-11-18T00:56:51;8.07;;;4.90;;
22219;SDS011;11279;48.364;10.904;2023-11-18T00:57:51;7.83;;;4.60;;
22219;SDS011;11279;48.364;10.904;2023-11-18T00:58:51;6.63;;;3.90;;
22219;SDS011;11279;48.364;10.904;2023-11-18T00:59:53;6.03;;;4.07;;
22219;SDS011;11279;48.364;10.904;2023-11-18T01:00:53;7.80;;;4.07;;
22219;SDS011;11279;48.364;10.904;2023-11-18T01:01:54;7.87;;;4.33;;
22219;SDS011;11279;48.364;10.904;2023-11-18T01:02:54;6.33;;;3.80;;
22219;SDS011;11279;48.364;10.904;2023-11-18T01:03:54;6.10;;;3.57;;
22219;SDS011;11279;48.364;10.904;2023-11-18T01:04:59;6.22;;;4.15;;
22219;SDS011;11279;48.364;10.904;2023-11-18T01:05:59;6.00;;;3.93;;
22219;SDS011;11279;48.364;10.904;2023-11-18T01:07:01;6.82;;;4.13;;
22219;SDS011;11279;48.364;10.904;2023-11-18T01:08:01;6.50;;;4.10;;
22219;SDS011;11279;48.364;10.904;2023-11-18T01:09:02;7.05;;;4.10;;
22219;SDS011;11279;48.364;10.904;2023-11-18T01:10:04;6.22;;;3.67;;
22219;SDS011;11279;48.364;10.904;2023-11-18T01:11:06;6.93;;;4.13;;
22219;SDS011;11279;48.364;10.904;2023-11-18T01:12:07;5.37;;;3.63;;
22219;SDS011;11279;48.364;10.904;2023-11-18T01:13:09;5.55;;;3.60;;
22219;SDS011;11279;48.364;10.904;2023-11-18T01:14:10;5.80;;;4.10;;
22219;SDS011;11279;48.364;10.904;2023-11-18T01:15:11;5.13;;;3.60;;
22219;SDS011;11279;48.364;10.904;2023-11-18T01:16:12;7.20;;;4.30;;
22219;SDS011;11279;48.364;10.904;2023-11-18T01:17:14;7.13;;;4.30;;
22219;SDS011;11279;48.364;10.904;2023-11-18T01:18:16;6.53;;;3.78;;
22219;SDS011;11279;48.364;10.904;2023-11-18T01:19:17;7.20;;;4.20;;
22219;SDS011;11279;48.364;10.904;2023-11-18T01:20:18;7.13;;;4.20;;
22219;SDS011;11279;48.364;10.904;2023-11-18T01:21:22;5.35;;;3.55;;
22219;SDS011;11279;48.364;10.904;2023-11-18T01:22:23;6.18;;;4.20;;
22219;SDS011;11279;48.364;10.904;2023-11-18T01:23:24;6.78;;;4.07;;
22219;SDS011;11279;48.364;10.904;2023-11-18T01:24:24;5.37;;;3.77;;
22219;SDS011;11279;48.364;10.904;2023-11-18T01:25:25;6.60;;;3.90;;
22219;SDS011;11279;48.364;10.904;2023-11-18T01:26:25;5.67;;;3.90;;
22219;SDS011;11279;48.364;10.904;2023-11-18T01:27:27;8.98;;;4.40;;
22219;SDS011;11279;48.364;10.904;2023-11-18T01:28:27;6.97;;;4.50;;
22219;SDS011;11279;48.364;10.904;2023-11-18T01:29:29;8.05;;;4.50;;
22219;SDS011;11279;48.364;10.904;2023-11-18T01:30:31;8.85;;;4.97;;
22219;SDS011;11279;48.364;10.904;2023-11-18T01:31:32;10.30;;;5.32;;
22219;SDS011;11279;48.364;10.904;2023-11-18T01:32:33;11.03;;;5.73;;
22219;SDS011;11279;48.364;10.904;2023-11-18T01:33:34;7.72;;;4.47;;
22219;SDS011;11279;48.364;10.904;2023-11-18T01:34:37;10.40;;;5.20;;
22219;SDS011;11279;48.364;10.904;2023-11-18T01:35:39;9.00;;;4.60;;
22219;SDS011;11279;48.364;10.904;2023-11-18T01:36:39;10.97;;;5.13;;
22219;SDS011;11279;48.364;10.904;2023-11-18T01:37:40;8.90;;;4.50;;
22219;SDS011;11279;48.364;10.904;2023-11-18T01:38:40;11.53;;;5.23;;
22219;SDS011;11279;48.364;10.904;2023-11-18T01:39:40;10.17;;;5.00;;
22219;SDS011;11279;48.364;10.904;2023-11-18T01:40:41;10.67;;;5.23;;
22219;SDS011;11279;48.364;10.904;2023-11-18T01:41:41;11.20;;;4.97;;
22219;SDS011;11279;48.364;10.904;2023-11-18T01:42:43;10.73;;;4.53;;
22219;SDS011;11279;48.364;10.904;2023-11-18T01:43:46;8.88;;;4.40;;
22219;SDS011;11279;48.364;10.904;2023-11-18T01:44:47;8.30;;;4.70;;
22219;SDS011;11279;48.364;10.904;2023-11-18T01:45:48;8.93;;;4.40;;
22219;SDS011;11279;48.364;10.904;2023-11-18T01:46:49;10.37;;;4.97;;
22219;SDS011;11279;48.364;10.904;2023-11-18T01:47:49;8.83;;;4.70;;
22219;SDS011;11279;48.364;10.904;2023-11-18T01:48:49;9.43;;;4.33;;
22219;SDS011;11279;48.364;10.904;2023-11-18T01:49:51;11.30;;;4.65;;
22219;SDS011;11279;48.364;10.904;2023-11-18T01:50:53;11.07;;;4.57;;
22219;SDS011;11279;48.364;10.904;2023-11-18T01:51:56;8.57;;;4.47;;
22219;SDS011;11279;48.364;10.904;2023-11-18T01:52:56;9.43;;;4.50;;
22219;SDS011;11279;48.364;10.904;2023-11-18T01:53:57;9.30;;;4.87;;
22219;SDS011;11279;48.364;10.904;2023-11-18T01:55:00;10.35;;;4.60;;
22219;SDS011;11279;48.364;10.904;2023-11-18T01:56:00;8.70;;;4.40;;
22219;SDS011;11279;48.364;10.904;2023-11-18T01:57:01;8.60;;;4.40;;
22219;SDS011;11279;48.364;10.904;2023-11-18T01:58:05;9.77;;;4.63;;
22219;SDS011;11279;48.364;10.904;2023-11-18T01:59:10;11.13;;;4.97;;
22219;SDS011;11279;48.364;10.904;2023-11-18T02:00:18;9.82;;;4.38;;
22219;SDS011;11279;48.364;10.904;2023-11-18T02:01:19;8.47;;;4.13;;
22219;SDS011;11279;48.364;10.904;2023-11-18T02:02:19;8.07;;;4.10;;
22219;SDS011;11279;48.364;10.904;2023-11-18T02:03:22;6.40;;;3.65;;
22219;SDS011;11279;48.364;10.904;2023-11-18T02:04:23;5.50;;;3.60;;
22219;SDS011;11279;48.364;10.904;2023-11-18T02:05:24;6.40;;;3.90;;
22219;SDS011;11279;48.364;10.904;2023-11-18T02:06:25;7.47;;;4.17;;
22219;SDS011;11279;48.364;10.904;2023-11-18T02:07:27;5.88;;;3.70;;
22219;SDS011;11279;48.364;10.904;2023-11-18T02:08:28;6.50;;;3.83;;
22219;SDS011;11279;48.364;10.904;2023-11-18T02:09:29;6.00;;;3.65;;
22219;SDS011;11279;48.364;10.904;2023-11-18T02:10:31;6.40;;;3.80;;
22219;SDS011;11279;48.364;10.904;2023-11-18T02:11:36;5.78;;;3.85;;
22219;SDS011;11279;48.364;10.904;2023-11-18T02:13:27;6.60;;;4.30;;
22219;SDS011;11279;48.364;10.904;2023-11-18T02:14:13;8.52;;;4.72;;
22219;SDS011;11279;48.364;10.904;2023-11-18T02:15:17;7.55;;;3.90;;
22219;SDS011;11279;48.364;10.904;2023-11-18T02:16:19;8.50;;;4.15;;
22219;SDS011;11279;48.364;10.904;2023-11-18T02:17:21;7.68;;;4.32;;
22219;SDS011;11279;48.364;10.904;2023-11-18T02:18:25;6.90;;;4.25;;
22219;SDS011;11279;48.364;10.904;2023-11-18T02:19:26;6.00;;;3.72;;
22219;SDS011;11279;48.364;10.904;2023-11-18T02:20:26;10.37;;;4.70;;
22219;SDS011;11279;48.364;10.904;2023-11-18T02:21:28;7.50;;;4.30;;
22219;SDS011;11279;48.364;10.904;2023-11-18T02:22:31;6.18;;;3.90;;
22219;SDS011;11279;48.364;10.904;2023-11-18T02:23:32;7.63;;;4.23;;
22219;SDS011;11279;48.364;10.904;2023-11-18T02:24:32;7.77;;;4.43;;
22219;SDS011;11279;48.364;10.904;2023-11-18T02:25:41;5.95;;;4.18;;
22219;SDS011;11279;48.364;10.904;2023-11-18T02:26:44;7.57;;;4.70;;
22219;SDS011;11279;48.364;10.904;2023-11-18T02:27:46;6.68;;;4.45;;
22219;SDS011;11279;48.364;10.904;2023-11-18T02:28:48;6.65;;;4.15;;
22219;SDS011;11279;48.364;10.904;2023-11-18T02:29:49;8.63;;;4.85;;
22219;SDS011;11279;48.364;10.904;2023-11-18T02:30:52;7.72;;;4.70;;
22219;SDS011;11279;48.364;10.904;2023-11-18T02:31:57;7.38;;;4.72;;
22219;SDS011;11279;48.364;10.904;2023-11-18T02:34:16;7.65;;;4.85;;
22219;SDS011;11279;48.364;10.904;2023-11-18T02:36:27;6.82;;;4.15;;
22219;SDS011;11279;48.364;10.904;2023-11-18T02:37:37;9.40;;;5.20;;
22219;SDS011;11279;48.364;10.904;2023-11-18T02:38:40;9.07;;;5.15;;
22219;SDS011;11279;48.364;10.904;2023-11-18T02:39:45;8.23;;;4.53;;
22219;SDS011;11279;48.364;10.904;2023-11-18T02:40:51;8.52;;;4.95;;
22219;SDS011;11279;48.364;10.904;2023-11-18T02:41:53;9.00;;;5.38;;
22219;SDS011;11279;48.364;10.904;2023-11-18T02:42:56;7.90;;;5.30;;
22219;SDS011;11279;48.364;10.904;2023-11-18T02:43:59;9.70;;;5.65;;
22219;SDS011;11279;48.364;10.904;2023-11-18T02:44:59;7.37;;;4.97;;
22219;SDS011;11279;48.364;10.904;2023-11-18T02:46:00;8.13;;;4.97;;
22219;SDS011;11279;48.364;10.904;2023-11-18T02:47:02;7.60;;;4.88;;
22219;SDS011;11279;48.364;10.904;2023-11-18T02:48:05;6.88;;;4.57;;
22219;SDS011;11279;48.364;10.904;2023-11-18T02:49:06;7.55;;;4.80;;
22219;SDS011;11279;48.364;10.904;2023-11-18T02:50:08;8.10;;;5.07;;
22219;SDS011;11279;48.364;10.904;2023-11-18T02:51:10;7.55;;;4.72;;
22219;SDS011;11279;48.364;10.904;2023-11-18T02:52:12;8.30;;;4.78;;
22219;SDS011;11279;48.364;10.904;2023-11-18T02:53:12;7.00;;;4.80;;
22219;SDS011;11279;48.364;10.904;2023-11-18T02:54:13;7.73;;;5.00;;
22219;SDS011;11279;48.364;10.904;2023-11-18T02:55:13;8.90;;;5.37;;
22219;SDS011;11279;48.364;10.904;2023-11-18T02:56:14;8.90;;;4.97;;
22219;SDS011;11279;48.364;10.904;2023-11-18T02:57:15;7.03;;;4.77;;
22219;SDS011;11279;48.364;10.904;2023-11-18T02:58:15;8.87;;;5.23;;
22219;SDS011;11279;48.364;10.904;2023-11-18T02:59:17;7.90;;;5.15;;
22219;SDS011;11279;48.364;10.904;2023-11-18T03:00:18;6.63;;;4.20;;
22219;SDS011;11279;48.364;10.904;2023-11-18T03:01:21;7.00;;;4.50;;
22219;SDS011;11279;48.364;10.904;2023-11-18T03:02:23;10.05;;;5.60;;
22219;SDS011;11279;48.364;10.904;2023-11-18T03:03:23;7.67;;;4.97;;
22219;SDS011;11279;48.364;10.904;2023-11-18T03:04:24;8.53;;;5.30;;
22219;SDS011;11279;48.364;10.904;2023-11-18T03:05:24;9.40;;;5.63;;
22219;SDS011;11279;48.364;10.904;2023-11-18T03:06:26;11.73;;;6.18;;
22219;SDS011;11279;48.364;10.904;2023-11-18T03:07:26;9.83;;;5.23;;
22219;SDS011;11279;48.364;10.904;2023-11-18T03:08:27;8.60;;;5.83;;
22219;SDS011;11279;48.364;10.904;2023-11-18T03:09:30;9.68;;;5.47;;
22219;SDS011;11279;48.364;10.904;2023-11-18T03:10:35;9.10;;;5.07;;
22219;SDS011;11279;48.364;10.904;2023-11-18T03:11:35;11.00;;;5.80;;
22219;SDS011;11279;48.364;10.904;2023-11-18T03:12:36;8.53;;;5.50;;
22219;SDS011;11279;48.364;10.904;2023-11-18T03:13:38;8.27;;;5.43;;
22219;SDS011;11279;48.364;10.904;2023-11-18T03:14:38;11.93;;;5.30;;
22219;SDS011;11279;48.364;10.904;2023-11-18T03:15:38;9.57;;;5.50;;
22219;SDS011;11279;48.364;10.904;2023-11-18T03:16:39;7.20;;;5.00;;
22219;SDS011;11279;48.364;10.904;2023-11-18T03:17:39;9.30;;;5.50;;
22219;SDS011;11279;48.364;10.904;2023-11-18T03:18:40;8.47;;;5.23;;
22219;SDS011;11279;48.364;10.904;2023-11-18T03:19:42;8.95;;;5.53;;
22219;SDS011;11279;48.364;10.904;2023-11-18T03:20:42;10.17;;;5.90;;
22219;SDS011;11279;48.364;10.904;2023-11-18T03:21:42;8.27;;;5.17;;
22219;SDS011;11279;48.364;10.904;2023-11-18T03:22:43;9.70;;;5.60;;
22219;SDS011;11279;48.364;10.904;2023-11-18T03:23:47;10.07;;;5.30;;
22219;SDS011;11279;48.364;10.904;2023-11-18T03:24:47;8.40;;;5.17;;
22219;SDS011;11279;48.364;10.904;2023-11-18T03:25:49;8.95;;;5.35;;
22219;SDS011;11279;48.364;10.904;2023-11-18T03:26:51;8.20;;;5.15;;
22219;SDS011;11279;48.364;10.904;2023-11-18T03:27:52;8.70;;;5.23;;
22219;SDS011;11279;48.364;10.904;2023-11-18T03:28:54;7.78;;;5.25;;
22219;SDS011;11279;48.364;10.904;2023-11-18T03:29:55;9.60;;;5.10;;
22219;SDS011;11279;48.364;10.904;2023-11-18T03:30:55;9.17;;;5.27;;
22219;SDS011;11279;48.364;10.904;2023-11-18T03:31:57;8.07;;;5.05;;
22219;SDS011;11279;48.364;10.904;2023-11-18T03:32:57;9.57;;;5.57;;
22219;SDS011;11279;48.364;10.904;2023-11-18T03:33:58;9.43;;;4.87;;
22219;SDS011;11279;48.364;10.904;2023-11-18T03:34:58;7.53;;;5.30;;
22219;SDS011;11279;48.364;10.904;2023-11-18T03:36:01;8.13;;;5.03;;
22219;SDS011;11279;48.364;10.904;2023-11-18T03:37:03;8.55;;;4.88;;
22219;SDS011;11279;48.364;10.904;2023-11-18T03:38:03;7.63;;;4.90;;
22219;SDS011;11279;48.364;10.904;2023-11-18T03:39:04;6.60;;;4.57;;
22219;SDS011;11279;48.364;10.904;2023-11-18T03:40:08;7.10;;;5.00;;
22219;SDS011;11279;48.364;10.904;2023-11-18T03:41:09;7.40;;;4.70;;
22219;SDS011;11279;48.364;10.904;2023-11-18T03:42:09;8.57;;;5.40;;
22219;SDS011;11279;48.364;10.904;2023-11-18T03:43:10;8.70;;;5.57;;
22219;SDS011;11279;48.364;10.904;2023-11-18T03:44:11;7.75;;;5.28;;
22219;SDS011;11279;48.364;10.904;2023-11-18T03:45:12;7.33;;;5.00;;
22219;SDS011;11279;48.364;10.904;2023-11-18T03:46:17;7.82;;;4.88;;
22219;SDS011;11279;48.364;10.904;2023-11-18T03:47:18;9.27;;;5.60;;
22219;SDS011;11279;48.364;10.904;2023-11-18T03:48:18;8.90;;;5.50;;
22219;SDS011;11279;48.364;10.904;2023-11-18T03:49:19;8.60;;;4.70;;
22219;SDS011;11279;48.364;10.904;2023-11-18T03:50:20;7.72;;;5.20;;
22219;SDS011;11279;48.364;10.904;2023-11-18T03:51:21;7.20;;;5.00;;
22219;SDS011;11279;48.364;10.904;2023-11-18T03:52:21;7.20;;;5.53;;
22219;SDS011;11279;48.364;10.904;2023-11-18T03:53:22;7.93;;;4.90;;
22219;SDS011;11279;48.364;10.904;2023-11-18T03:54:22;8.07;;;5.30;;
22219;SDS011;11279;48.364;10.904;2023-11-18T03:55:23;7.77;;;5.43;;
22219;SDS011;11279;48.364;10.904;2023-11-18T03:56:23;8.13;;;5.13;;
22219;SDS011;11279;48.364;10.904;2023-11-18T03:57:23;9.63;;;5.43;;
22219;SDS011;11279;48.364;10.904;2023-11-18T03:58:24;8.70;;;5.60;;
22219;SDS011;11279;48.364;10.904;2023-11-18T03:59:25;8.73;;;5.33;;
22219;SDS011;11279;48.364;10.904;2023-11-18T04:00:25;9.65;;;5.47;;
22219;SDS011;11279;48.364;10.904;2023-11-18T04:01:29;10.43;;;5.35;;
22219;SDS011;11279;48.364;10.904;2023-11-18T04:02:30;8.17;;;5.07;;
22219;SDS011;11279;48.364;10.904;2023-11-18T04:03:30;9.70;;;5.37;;
22219;SDS011;11279;48.364;10.904;2023-11-18T04:04:31;7.85;;;4.90;;
22219;SDS011;11279;48.364;10.904;2023-11-18T04:05:32;9.77;;;5.27;;
22219;SDS011;11279;48.364;10.904;2023-11-18T04:06:33;8.55;;;5.07;;
22219;SDS011;11279;48.364;10.904;2023-11-18T04:07:34;10.13;;;5.93;;
22219;SDS011;11279;48.364;10.904;2023-11-18T04:08:34;8.73;;;4.97;;
22219;SDS011;11279;48.364;10.904;2023-11-18T04:09:34;9.10;;;6.03;;
22219;SDS011;11279;48.364;10.904;2023-11-18T04:10:35;8.83;;;5.87;;
22219;SDS011;11279;48.364;10.904;2023-11-18T04:11:36;9.23;;;5.53;;
22219;SDS011;11279;48.364;10.904;2023-11-18T04:12:36;7.63;;;5.20;;
22219;SDS011;11279;48.364;10.904;2023-11-18T04:13:38;7.32;;;5.30;;
22219;SDS011;11279;48.364;10.904;2023-11-18T04:14:38;8.80;;;5.03;;
22219;SDS011;11279;48.364;10.904;2023-11-18T04:15:39;8.43;;;5.40;;
22219;SDS011;11279;48.364;10.904;2023-11-18T04:16:39;10.67;;;4.90;;
22219;SDS011;11279;48.364;10.904;2023-11-18T04:17:39;8.30;;;5.40;;
22219;SDS011;11279;48.364;10.904;2023-11-18T04:18:40;7.63;;;5.13;;
22219;SDS011;11279;48.364;10.904;2023-11-18T04:19:41;11.38;;;5.60;;
22219;SDS011;11279;48.364;10.904;2023-11-18T04:20:41;11.03;;;5.90;;
22219;SDS011;11279;48.364;10.904;2023-11-18T04:21:42;9.77;;;6.00;;
22219;SDS011;11279;48.364;10.904;2023-11-18T04:22:47;7.97;;;5.18;;
22219;SDS011;11279;48.364;10.904;2023-11-18T04:23:48;10.90;;;5.13;;
22219;SDS011;11279;48.364;10.904;2023-11-18T04:24:48;7.93;;;5.30;;
22219;SDS011;11279;48.364;10.904;2023-11-18T04:25:50;7.45;;;5.28;;
22219;SDS011;11279;48.364;10.904;2023-11-18T04:26:50;8.03;;;5.30;;
22219;SDS011;11279;48.364;10.904;2023-11-18T04:27:51;9.43;;;6.30;;
22219;SDS011;11279;48.364;10.904;2023-11-18T04:28:51;7.23;;;5.03;;
22219;SDS011;11279;48.364;10.904;2023-11-18T04:29:52;11.70;;;5.97;;
22219;SDS011;11279;48.364;10.904;2023-11-18T04:30:52;8.43;;;5.00;;
22219;SDS011;11279;48.364;10.904;2023-11-18T04:31:53;12.07;;;6.13;;
22219;SDS011;11279;48.364;10.904;2023-11-18T04:32:53;7.50;;;4.60;;
22219;SDS011;11279;48.364;10.904;2023-11-18T04:33:54;6.73;;;4.67;;
22219;SDS011;11279;48.364;10.904;2023-11-18T04:34:56;6.78;;;4.90;;
22219;SDS011;11279;48.364;10.904;2023-11-18T04:35:56;8.37;;;5.43;;
22219;SDS011;11279;48.364;10.904;2023-11-18T04:36:59;9.00;;;5.57;;
22219;SDS011;11279;48.364;10.904;2023-11-18T04:38:00;7.90;;;4.93;;
22219;SDS011;11279;48.364;10.904;2023-11-18T04:39:01;7.57;;;5.27;;
22219;SDS011;11279;48.364;10.904;2023-11-18T04:40:03;8.20;;;5.15;;
22219;SDS011;11279;48.364;10.904;2023-11-18T04:41:04;8.80;;;4.88;;
22219;SDS011;11279;48.364;10.904;2023-11-18T04:42:04;7.03;;;5.13;;
22219;SDS011;11279;48.364;10.904;2023-11-18T04:43:05;7.37;;;5.20;;
22219;SDS011;11279;48.364;10.904;2023-11-18T04:44:05;8.73;;;5.27;;
22219;SDS011;11279;48.364;10.904;2023-11-18T04:45:06;9.10;;;5.57;;
22219;SDS011;11279;48.364;10.904;2023-11-18T04:46:09;8.30;;;5.60;;
22219;SDS011;11279;48.364;10.904;2023-11-18T04:47:10;7.07;;;5.07;;
22219;SDS011;11279;48.364;10.904;2023-11-18T04:48:11;8.87;;;5.23;;
22219;SDS011;11279;48.364;10.904;2023-11-18T04:49:15;7.82;;;5.20;;
22219;SDS011;11279;48.364;10.904;2023-11-18T04:50:16;6.47;;;4.63;;
22219;SDS011;11279;48.364;10.904;2023-11-18T04:51:16;8.47;;;5.37;;
22219;SDS011;11279;48.364;10.904;2023-11-18T04:52:17;6.85;;;4.75;;
22219;SDS011;11279;48.364;10.904;2023-11-18T04:53:18;8.02;;;5.30;;
22219;SDS011;11279;48.364;10.904;2023-11-18T04:54:19;8.80;;;5.40;;
22219;SDS011;11279;48.364;10.904;2023-11-18T04:55:19;7.83;;;5.13;;
22219;SDS011;11279;48.364;10.904;2023-11-18T04:56:20;7.07;;;4.93;;
22219;SDS011;11279;48.364;10.904;2023-11-18T04:57:21;8.57;;;4.90;;
22219;SDS011;11279;48.364;10.904;2023-11-18T04:58:22;7.87;;;4.93;;
22219;SDS011;11279;48.364;10.904;2023-11-18T04:59:22;7.23;;;4.90;;
22219;SDS011;11279;48.364;10.904;2023-11-18T05:00:23;7.43;;;4.90;;
22219;SDS011;11279;48.364;10.904;2023-11-18T05:01:23;7.97;;;5.37;;
22219;SDS011;11279;48.364;10.904;2023-11-18T05:02:23;7.13;;;5.00;;
22219;SDS011;11279;48.364;10.904;2023-11-18T05:03:24;7.83;;;5.37;;
22219;SDS011;11279;48.364;10.904;2023-11-18T05:04:24;8.87;;;5.00;;
22219;SDS011;11279;48.364;10.904;2023-11-18T05:05:25;6.90;;;4.80;;
22219;SDS011;11279;48.364;10.904;2023-11-18T05:06:25;7.90;;;5.03;;
22219;SDS011;11279;48.364;10.904;2023-11-18T05:07:26;7.77;;;4.80;;
22219;SDS011;11279;48.364;10.904;2023-11-18T05:08:28;8.40;;;5.55;;
22219;SDS011;11279;48.364;10.904;2023-11-18T05:09:28;8.87;;;5.57;;
22219;SDS011;11279;48.364;10.904;2023-11-18T05:10:29;9.63;;;5.30;;
22219;SDS011;11279;48.364;10.904;2023-11-18T05:11:30;7.73;;;5.17;;
22219;SDS011;11279;48.364;10.904;2023-11-18T05:12:30;9.40;;;5.30;;
22219;SDS011;11279;48.364;10.904;2023-11-18T05:13:32;8.82;;;5.28;;
22219;SDS011;11279;48.364;10.904;2023-11-18T05:14:33;8.82;;;5.68;;
22219;SDS011;11279;48.364;10.904;2023-11-18T05:15:34;6.63;;;4.67;;
22219;SDS011;11279;48.364;10.904;2023-11-18T05:16:37;10.90;;;5.60;;
22219;SDS011;11279;48.364;10.904;2023-11-18T05:17:39;8.55;;;5.22;;
22219;SDS011;11279;48.364;10.904;2023-11-18T05:18:39;10.57;;;5.40;;
22219;SDS011;11279;48.364;10.904;2023-11-18T05:19:41;7.53;;;5.40;;
22219;SDS011;11279;48.364;10.904;2023-11-18T05:20:43;8.38;;;5.13;;
22219;SDS011;11279;48.364;10.904;2023-11-18T05:21:44;6.82;;;4.60;;
22219;SDS011;11279;48.364;10.904;2023-11-18T05:22:49;8.68;;;5.05;;
22219;SDS011;11279;48.364;10.904;2023-11-18T05:23:49;7.40;;;4.70;;
22219;SDS011;11279;48.364;10.904;2023-11-18T05:24:51;6.78;;;4.47;;
22219;SDS011;11279;48.364;10.904;2023-11-18T05:25:51;8.40;;;4.93;;
22219;SDS011;11279;48.364;10.904;2023-11-18T05:26:52;8.37;;;5.10;;
22219;SDS011;11279;48.364;10.904;2023-11-18T05:27:52;9.00;;;4.73;;
22219;SDS011;11279;48.364;10.904;2023-11-18T05:28:53;6.80;;;4.90;;
22219;SDS011;11279;48.364;10.904;2023-11-18T05:29:54;6.78;;;4.65;;
22219;SDS011;11279;48.364;10.904;2023-11-18T05:30:55;7.20;;;4.80;;
22219;SDS011;11279;48.364;10.904;2023-11-18T05:31:58;6.47;;;4.50;;
22219;SDS011;11279;48.364;10.904;2023-11-18T05:32:58;8.47;;;5.30;;
22219;SDS011;11279;48.364;10.904;2023-11-18T05:33:59;8.83;;;5.27;;
22219;SDS011;11279;48.364;10.904;2023-11-18T05:34:59;8.03;;;5.43;;
22219;SDS011;11279;48.364;10.904;2023-11-18T05:36:00;8.23;;;5.13;;
22219;SDS011;11279;48.364;10.904;2023-11-18T05:37:01;8.30;;;5.00;;
22219;SDS011;11279;48.364;10.904;2023-11-18T05:38:02;7.13;;;4.93;;
22219;SDS011;11279;48.364;10.904;2023-11-18T05:39:06;7.70;;;5.13;;
22219;SDS011;11279;48.364;10.904;2023-11-18T05:40:07;7.03;;;4.60;;
22219;SDS011;11279;48.364;10.904;2023-11-18T05:41:09;8.10;;;5.32;;
22219;SDS011;11279;48.364;10.904;2023-11-18T05:42:16;7.35;;;4.38;;
22219;SDS011;11279;48.364;10.904;2023-11-18T05:43:17;8.50;;;5.00;;
22219;SDS011;11279;48.364;10.904;2023-11-18T05:44:20;6.60;;;4.18;;
22219;SDS011;11279;48.364;10.904;2023-11-18T05:45:30;6.97;;;4.63;;
22219;SDS011;11279;48.364;10.904;2023-11-18T05:46:37;7.90;;;4.68;;
22219;SDS011;11279;48.364;10.904;2023-11-18T05:47:39;7.78;;;4.30;;
22219;SDS011;11279;48.364;10.904;2023-11-18T05:48:39;8.37;;;5.10;;
22219;SDS011;11279;48.364;10.904;2023-11-18T05:49:43;7.45;;;4.70;;
22219;SDS011;11279;48.364;10.904;2023-11-18T05:50:43;7.70;;;4.87;;
22219;SDS011;11279;48.364;10.904;2023-11-18T05:51:43;7.30;;;5.00;;
22219;SDS011;11279;48.364;10.904;2023-11-18T05:52:45;7.55;;;4.68;;
22219;SDS011;11279;48.364;10.904;2023-11-18T05:53:45;6.83;;;4.60;;
22219;SDS011;11279;48.364;10.904;2023-11-18T05:54:46;5.87;;;4.07;;
22219;SDS011;11279;48.364;10.904;2023-11-18T05:55:50;6.50;;;4.10;;
22219;SDS011;11279;48.364;10.904;2023-11-18T05:56:50;7.10;;;4.43;;
22219;SDS011;11279;48.364;10.904;2023-11-18T05:57:51;6.63;;;4.50;;
22219;SDS011;11279;48.364;10.904;2023-11-18T05:58:52;7.83;;;4.60;;
22219;SDS011;11279;48.364;10.904;2023-11-18T05:59:55;7.25;;;4.80;;
22219;SDS011;11279;48.364;10.904;2023-11-18T06:00:55;6.57;;;4.70;;
22219;SDS011;11279;48.364;10.904;2023-11-18T06:01:56;6.77;;;4.40;;
22219;SDS011;11279;48.364;10.904;2023-11-18T06:02:57;6.13;;;4.27;;
22219;SDS011;11279;48.364;10.904;2023-11-18T06:03:57;6.23;;;4.30;;
22219;SDS011;11279;48.364;10.904;2023-11-18T06:04:57;6.50;;;4.23;;
22219;SDS011;11279;48.364;10.904;2023-11-18T06:05:58;9.30;;;4.50;;